Time;durP1;ratioP1;P1;durP2;ratioP2;P2;SDS_P1;SDS_P2;PMS_P1;PMS_P2;Temp;Humidity;BMP_temperature;BMP_pressure;BME280_temperature;BME280_humidity;BME280_pressure;Samples;Min_cycle;Max_cycle;Signal;HPM_P1;HPM_P2
2022/03/20 00:01:04;;;;;;;19.50;12.50;;;;;;;;;;4914752;29;20035;-71
2022/03/20 00:03:31;;;;;;;22.65;13.10;;;;;;;;;;4915447;29;20471;-70
2022/03/20 00:05:58;;;;;;;17.83;11.32;;;;;;;;;;4915088;29;20103;-73
2022/03/20 00:08:25;;;;;;;20.50;11.27;;;;;;;;;;4914893;29;20024;-72
2022/03/20 00:10:52;;;;;;;20.25;11.52;;;;;;;;;;4915478;29;20483;-71
2022/03/20 00:13:21;;;;;;;17.55;10.70;;;;;;;;;;4915573;29;20480;-71
2022/03/20 00:15:49;;;;;;;17.25;9.63;;;;;;;;;;4915145;29;20096;-75
2022/03/20 00:18:20;;;;;;;16.23;9.60;;;;;;;;;;4914447;29;20036;-74
2022/03/20 00:21:00;;;;;;;13.13;9.38;;;;;;;;;;4915166;29;20036;-71
2022/03/20 00:23:27;;;;;;;15.80;10.75;;;;;;;;;;4915122;29;20408;-72
2022/03/20 00:25:55;;;;;;;14.55;9.90;;;;;;;;;;4915253;29;20037;-70
2022/03/20 00:28:25;;;;;;;16.30;10.07;;;;;;;;;;4915308;29;20033;-73
2022/03/20 00:30:53;;;;;;;16.60;9.57;;;;;;;;;;4914761;29;20500;-71
2022/03/20 00:33:18;;;;;;;15.00;9.82;;;;;;;;;;4915090;29;20399;-74
2022/03/20 00:35:45;;;;;;;17.33;9.32;;;;;;;;;;4914988;29;20032;-73
2022/03/20 00:38:10;;;;;;;15.57;9.55;;;;;;;;;;4915088;29;20458;-72
2022/03/20 00:40:37;;;;;;;17.95;9.90;;;;;;;;;;4915000;29;20083;-71
2022/03/20 00:43:06;;;;;;;18.33;10.52;;;;;;;;;;4914923;29;20107;-72
2022/03/20 00:45:33;;;;;;;17.38;9.18;;;;;;;;;;4915305;29;20038;-74
2022/03/20 00:47:59;;;;;;;15.90;9.88;;;;;;;;;;4914842;29;20115;-73
2022/03/20 00:50:25;;;;;;;15.50;8.93;;;;;;;;;;4913957;29;20071;-73
2022/03/20 00:52:51;;;;;;;17.48;9.48;;;;;;;;;;4914661;29;20024;-75
2022/03/20 00:55:17;;;;;;;14.27;8.70;;;;;;;;;;4915170;29;20087;-74
2022/03/20 00:57:43;;;;;;;16.17;9.10;;;;;;;;;;4914998;29;20024;-73
2022/03/20 01:00:09;;;;;;;14.00;8.55;;;;;;;;;;4915135;29;20083;-73
2022/03/20 01:02:43;;;;;;;15.25;8.73;;;;;;;;;;4914312;29;20395;-74
2022/03/20 01:05:09;;;;;;;12.77;8.00;;;;;;;;;;4914472;29;20100;-72
2022/03/20 01:07:36;;;;;;;13.15;8.13;;;;;;;;;;4914761;29;20024;-73
2022/03/20 01:10:04;;;;;;;11.52;8.30;;;;;;;;;;4914579;29;20424;-73
2022/03/20 01:12:32;;;;;;;12.13;7.90;;;;;;;;;;4918559;29;20067;-71
2022/03/20 01:14:58;;;;;;;12.38;7.68;;;;;;;;;;4918578;29;20104;-75
2022/03/20 01:17:24;;;;;;;14.10;7.70;;;;;;;;;;4918697;29;20032;-74
2022/03/20 01:19:51;;;;;;;17.33;8.73;;;;;;;;;;4918696;29;20047;-72
2022/03/20 01:22:16;;;;;;;10.52;6.85;;;;;;;;;;4918058;29;20039;-74
2022/03/20 01:24:42;;;;;;;12.18;6.85;;;;;;;;;;4918908;29;20391;-73
2022/03/20 01:27:09;;;;;;;10.43;6.70;;;;;;;;;;4919016;29;20378;-74
2022/03/20 01:29:35;;;;;;;11.57;6.43;;;;;;;;;;4918786;29;20490;-73
2022/03/20 01:32:02;;;;;;;11.05;6.68;;;;;;;;;;4918644;29;20480;-74
2022/03/20 01:34:28;;;;;;;13.13;6.43;;;;;;;;;;4918831;29;20072;-73
2022/03/20 01:36:54;;;;;;;13.43;6.15;;;;;;;;;;4918067;29;20048;-74
2022/03/20 01:39:20;;;;;;;9.32;5.85;;;;;;;;;;4918004;29;20135;-72
2022/03/20 01:41:47;;;;;;;11.80;6.30;;;;;;;;;;4917963;29;20066;-74
2022/03/20 01:44:14;;;;;;;8.82;5.65;;;;;;;;;;4918163;29;20534;-74
2022/03/20 01:46:40;;;;;;;9.68;5.45;;;;;;;;;;4918241;29;20036;-74
2022/03/20 01:49:06;;;;;;;9.65;5.40;;;;;;;;;;4917908;29;20398;-75
2022/03/20 01:54:16;;;;;;;9.80;5.07;;;;;;;;;;4917658;29;20040;-71
2022/03/20 01:56:49;;;;;;;8.93;4.97;;;;;;;;;;4918056;29;20428;-70
2022/03/20 01:59:16;;;;;;;8.25;4.68;;;;;;;;;;4918153;29;20040;-74
2022/03/20 02:01:42;;;;;;;8.32;5.00;;;;;;;;;;4917867;29;20493;-73
2022/03/20 02:04:13;;;;;;;6.43;4.53;;;;;;;;;;4918216;29;20488;-72
2022/03/20 02:06:41;;;;;;;8.20;4.30;;;;;;;;;;4918100;29;20118;-72
2022/03/20 02:09:06;;;;;;;7.97;4.50;;;;;;;;;;4916727;29;20020;-74
2022/03/20 02:11:33;;;;;;;7.30;4.00;;;;;;;;;;4913823;29;20500;-74
2022/03/20 02:13:59;;;;;;;7.80;4.60;;;;;;;;;;4911230;29;20028;-75
2022/03/20 02:16:26;;;;;;;6.70;4.20;;;;;;;;;;4910272;29;20051;-71
2022/03/20 02:18:52;;;;;;;6.47;3.75;;;;;;;;;;4920101;29;20032;-73
2022/03/20 02:21:42;;;;;;;8.18;3.90;;;;;;;;;;4915657;29;20091;-73
2022/03/20 02:24:32;;;;;;;7.00;3.85;;;;;;;;;;4915296;29;20036;-74
2022/03/20 02:27:24;;;;;;;6.38;3.90;;;;;;;;;;4917496;29;20032;-72
2022/03/20 02:29:58;;;;;;;6.88;4.18;;;;;;;;;;4916871;29;20126;-75
2022/03/20 02:32:29;;;;;;;6.10;3.67;;;;;;;;;;4917895;29;20066;-73
2022/03/20 02:35:04;;;;;;;7.18;3.80;;;;;;;;;;4905257;29;20099;-73
2022/03/20 02:37:31;;;;;;;6.50;3.50;;;;;;;;;;4897899;29;20067;-74
2022/03/20 02:40:00;;;;;;;6.97;3.83;;;;;;;;;;4916105;29;20039;-75
2022/03/20 02:42:28;;;;;;;7.43;3.72;;;;;;;;;;4931007;29;20059;-73
2022/03/20 02:45:03;;;;;;;6.00;3.67;;;;;;;;;;4915437;29;20028;-74
2022/03/20 02:47:34;;;;;;;5.93;3.58;;;;;;;;;;4916890;29;20544;-72
2022/03/20 02:50:04;;;;;;;5.30;3.33;;;;;;;;;;4916904;29;20043;-74
2022/03/20 02:52:41;;;;;;;6.93;4.00;;;;;;;;;;4899153;29;20044;-73
2022/03/20 02:55:08;;;;;;;6.80;3.35;;;;;;;;;;4902259;29;20566;-73
2022/03/20 02:57:34;;;;;;;6.80;3.72;;;;;;;;;;4916584;29;20032;-74
2022/03/20 03:00:03;;;;;;;7.20;3.55;;;;;;;;;;4915882;29;20048;-73
2022/03/20 03:02:43;;;;;;;5.95;3.13;;;;;;;;;;4916641;29;20059;-73
2022/03/20 03:05:18;;;;;;;5.38;3.55;;;;;;;;;;4903003;29;20381;-73
2022/03/20 03:13:18;;;;;;;3.67;2.53;;;;;;;;;;4915500;29;20032;-74
2022/03/20 03:15:44;;;;;;;6.97;3.63;;;;;;;;;;4914863;29;20546;-74
2022/03/20 03:18:10;;;;;;;6.45;3.47;;;;;;;;;;4915396;29;20040;-73
2022/03/20 03:20:36;;;;;;;6.35;3.80;;;;;;;;;;4915648;29;20047;-75
2022/03/20 03:23:03;;;;;;;4.90;3.20;;;;;;;;;;4916880;29;20040;-74
2022/03/20 03:25:35;;;;;;;6.68;3.45;;;;;;;;;;4915535;29;20079;-74
2022/03/20 03:28:01;;;;;;;6.32;3.40;;;;;;;;;;4922736;29;20039;-74
2022/03/20 03:30:27;;;;;;;4.85;3.47;;;;;;;;;;4915651;29;20036;-74
2022/03/20 03:32:54;;;;;;;6.13;3.78;;;;;;;;;;4929909;29;20076;-74
2022/03/20 03:38:05;;;;;;;7.88;3.85;;;;;;;;;;4915392;29;20040;-72
2022/03/20 03:40:30;;;;;;;7.18;3.42;;;;;;;;;;4909291;29;20036;-71
2022/03/20 03:42:57;;;;;;;6.65;3.80;;;;;;;;;;4897144;29;20520;-73
2022/03/20 03:45:24;;;;;;;7.57;3.60;;;;;;;;;;4896504;29;20032;-72
2022/03/20 03:47:51;;;;;;;5.32;3.03;;;;;;;;;;4896529;29;20056;-69
2022/03/20 03:50:19;;;;;;;5.63;3.45;;;;;;;;;;4909062;29;20035;-73
2022/03/20 03:52:45;;;;;;;5.25;3.20;;;;;;;;;;4916268;29;20036;-73
2022/03/20 03:55:10;;;;;;;6.03;2.88;;;;;;;;;;4915596;29;20047;-73
2022/03/20 03:57:36;;;;;;;4.43;2.78;;;;;;;;;;4908950;29;20503;-72
2022/03/20 04:00:03;;;;;;;5.45;2.63;;;;;;;;;;4929851;29;20042;-71
2022/03/20 04:02:29;;;;;;;5.40;2.55;;;;;;;;;;4899878;29;20043;-74
2022/03/20 04:04:55;;;;;;;5.00;2.92;;;;;;;;;;4910453;29;20569;-74
2022/03/20 04:07:21;;;;;;;4.38;2.45;;;;;;;;;;4915729;29;20115;-74
2022/03/20 04:09:48;;;;;;;9.05;2.88;;;;;;;;;;4915856;29;20099;-73
2022/03/20 04:12:14;;;;;;;5.03;2.67;;;;;;;;;;4915323;29;20036;-72
2022/03/20 04:14:43;;;;;;;4.35;2.72;;;;;;;;;;4915852;29;20968;-73
2022/03/20 04:17:12;;;;;;;9.90;3.22;;;;;;;;;;4903677;29;20041;-74
2022/03/20 04:19:39;;;;;;;7.15;2.60;;;;;;;;;;4897462;29;20075;-73
2022/03/20 04:22:05;;;;;;;4.68;2.65;;;;;;;;;;4895564;29;20064;-75
2022/03/20 04:24:31;;;;;;;8.20;2.80;;;;;;;;;;4894329;29;20039;-73
2022/03/20 04:26:58;;;;;;;4.80;2.60;;;;;;;;;;4896069;29;20036;-74
2022/03/20 04:29:27;;;;;;;5.78;2.78;;;;;;;;;;4904987;29;20048;-74
2022/03/20 04:31:54;;;;;;;4.05;2.50;;;;;;;;;;4915785;29;20044;-72
2022/03/20 04:34:26;;;;;;;4.93;2.53;;;;;;;;;;4915157;29;20052;-73
2022/03/20 04:36:54;;;;;;;7.85;3.17;;;;;;;;;;4915559;29;20123;-75
2022/03/20 04:39:19;;;;;;;5.47;2.67;;;;;;;;;;4899916;29;20498;-72
2022/03/20 04:41:46;;;;;;;6.22;2.75;;;;;;;;;;4896212;29;20041;-74
2022/03/20 04:44:12;;;;;;;7.07;2.90;;;;;;;;;;4895358;29;20487;-73
2022/03/20 04:46:41;;;;;;;6.22;3.30;;;;;;;;;;4908600;29;20052;-73
2022/03/20 05:00:22;;;;;;;6.35;3.55;;;;;;;;;;4913505;29;20056;-73
2022/03/20 05:02:49;;;;;;;5.82;3.28;;;;;;;;;;4905911;29;20028;-73
2022/03/20 05:05:15;;;;;;;7.40;3.53;;;;;;;;;;4904562;29;20037;-74
2022/03/20 05:07:41;;;;;;;6.65;3.33;;;;;;;;;;4900346;29;20111;-74
2022/03/20 05:15:36;;;;;;;7.35;3.83;;;;;;;;;;4901435;29;20052;-74
2022/03/20 05:18:03;;;;;;;6.78;3.80;;;;;;;;;;4912619;29;20084;-75
2022/03/20 05:20:29;;;;;;;7.40;4.10;;;;;;;;;;4910777;29;20511;-74
2022/03/20 05:22:55;;;;;;;9.88;3.72;;;;;;;;;;4918588;29;20036;-75
2022/03/20 05:25:21;;;;;;;7.22;3.75;;;;;;;;;;4917761;29;20127;-75
2022/03/20 05:27:48;;;;;;;4.97;3.30;;;;;;;;;;4918113;29;20059;-73
2022/03/20 05:30:15;;;;;;;7.03;3.70;;;;;;;;;;4918871;29;20056;-75
2022/03/20 05:32:40;;;;;;;7.57;3.45;;;;;;;;;;4932150;29;20039;-76
2022/03/20 05:35:08;;;;;;;5.05;3.40;;;;;;;;;;4917903;29;20079;-75
2022/03/20 05:37:35;;;;;;;11.90;3.20;;;;;;;;;;4919106;29;20084;-74
2022/03/20 05:40:02;;;;;;;5.28;3.13;;;;;;;;;;4913393;29;20052;-74
2022/03/20 05:42:28;;;;;;;5.25;3.05;;;;;;;;;;4914212;29;20356;-73
2022/03/20 05:44:54;;;;;;;8.95;3.03;;;;;;;;;;4903674;29;20119;-75
2022/03/20 05:47:19;;;;;;;8.20;3.03;;;;;;;;;;4910689;29;20372;-75
2022/03/20 05:49:46;;;;;;;6.20;3.05;;;;;;;;;;4904522;29;20040;-73
2022/03/20 05:52:16;;;;;;;5.65;3.17;;;;;;;;;;4918209;29;20031;-73
2022/03/20 05:54:41;;;;;;;7.32;3.00;;;;;;;;;;4918150;29;20032;-72
2022/03/20 05:59:54;;;;;;;9.00;2.95;;;;;;;;;;4900210;29;20036;-71
2022/03/20 06:02:20;;;;;;;8.32;3.40;;;;;;;;;;4901140;29;20029;-68
2022/03/20 06:04:47;;;;;;;6.22;3.22;;;;;;;;;;4917182;29;20040;-71
2022/03/20 06:07:13;;;;;;;5.88;3.08;;;;;;;;;;4916018;29;20507;-71
2022/03/20 06:09:39;;;;;;;5.78;3.40;;;;;;;;;;4916631;29;20040;-69
2022/03/20 06:12:06;;;;;;;5.22;2.97;;;;;;;;;;4916604;29;20039;-74
2022/03/20 06:14:34;;;;;;;6.45;3.75;;;;;;;;;;4907005;29;20131;-78
2022/03/20 06:17:01;;;;;;;5.50;3.95;;;;;;;;;;4910218;29;20164;-75
2022/03/20 06:19:27;;;;;;;7.38;4.68;;;;;;;;;;4915684;29;20191;-73
2022/03/20 06:21:53;;;;;;;9.00;3.83;;;;;;;;;;4905159;29;20517;-73
2022/03/20 06:24:18;;;;;;;6.30;3.40;;;;;;;;;;4907267;29;20036;-78
2022/03/20 06:26:44;;;;;;;8.73;3.70;;;;;;;;;;4913363;29;20034;-79
2022/03/20 06:29:10;;;;;;;6.22;4.35;;;;;;;;;;4900465;29;20496;-79
2022/03/20 06:31:36;;;;;;;5.55;3.17;;;;;;;;;;4898747;29;20184;-80
2022/03/20 06:34:04;;;;;;;6.78;3.47;;;;;;;;;;4902385;29;20032;-77
2022/03/20 06:36:30;;;;;;;6.97;3.72;;;;;;;;;;4909517;29;20488;-80
2022/03/20 06:38:56;;;;;;;5.03;3.58;;;;;;;;;;4909172;29;20046;-78
2022/03/20 06:41:22;;;;;;;6.35;4.00;;;;;;;;;;4916434;29;20032;-78
2022/03/20 06:43:49;;;;;;;6.03;3.42;;;;;;;;;;4916830;29;20476;-79
2022/03/20 06:46:15;;;;;;;5.53;3.60;;;;;;;;;;4916787;29;20024;-79
2022/03/20 06:48:41;;;;;;;5.57;3.28;;;;;;;;;;4915587;29;20043;-79
2022/03/20 06:51:07;;;;;;;8.93;4.13;;;;;;;;;;4905421;29;20040;-80
2022/03/20 06:53:33;;;;;;;6.38;3.47;;;;;;;;;;4901344;29;20037;-78
2022/03/20 06:56:00;;;;;;;7.55;3.45;;;;;;;;;;4916707;29;20468;-80
2022/03/20 06:58:27;;;;;;;5.32;3.78;;;;;;;;;;4915353;29;20129;-79
2022/03/20 07:00:53;;;;;;;5.65;3.60;;;;;;;;;;4900782;29;20114;-77
2022/03/20 07:03:20;;;;;;;6.15;2.65;;;;;;;;;;4911286;29;20032;-80
2022/03/20 07:05:47;;;;;;;6.30;3.55;;;;;;;;;;4908533;29;20056;-80
2022/03/20 07:08:13;;;;;;;5.55;3.53;;;;;;;;;;4902154;29;20435;-79
2022/03/20 07:10:39;;;;;;;4.60;2.90;;;;;;;;;;4913069;29;20035;-78
2022/03/20 07:15:57;;;;;;;6.07;3.28;;;;;;;;;;4922306;29;20050;-77
2022/03/20 07:18:24;;;;;;;6.00;3.43;;;;;;;;;;4932849;29;20043;-77
2022/03/20 07:20:50;;;;;;;7.18;2.70;;;;;;;;;;4904064;29;20040;-79
2022/03/20 07:23:16;;;;;;;6.00;3.03;;;;;;;;;;4914399;29;20111;-79
2022/03/20 07:31:14;;;;;;;7.82;3.00;;;;;;;;;;4912902;29;20040;-77
2022/03/20 07:33:40;;;;;;;5.45;3.30;;;;;;;;;;4916107;29;20028;-76
2022/03/20 07:36:07;;;;;;;7.35;3.17;;;;;;;;;;4916184;29;20043;-78
2022/03/20 07:38:35;;;;;;;4.05;2.50;;;;;;;;;;4914232;29;20083;-76
2022/03/20 07:41:01;;;;;;;5.43;3.05;;;;;;;;;;4913279;29;20036;-77
2022/03/20 07:43:26;;;;;;;4.68;2.90;;;;;;;;;;4915726;29;20032;-77
2022/03/20 07:45:53;;;;;;;6.45;3.78;;;;;;;;;;4930850;29;20040;-77
2022/03/20 07:48:22;;;;;;;5.82;3.97;;;;;;;;;;4915331;29;20032;-75
2022/03/20 07:50:49;;;;;;;4.43;2.60;;;;;;;;;;4908763;29;20055;-75
2022/03/20 07:53:17;;;;;;;5.45;2.58;;;;;;;;;;4899539;29;20465;-76
2022/03/20 07:55:43;;;;;;;4.55;3.10;;;;;;;;;;4907354;29;20381;-73
2022/03/20 07:58:10;;;;;;;3.45;2.15;;;;;;;;;;4907255;29;20028;-73
2022/03/20 08:00:39;;;;;;;6.35;3.22;;;;;;;;;;4914944;29;20103;-74
2022/03/20 08:03:05;;;;;;;4.80;2.72;;;;;;;;;;4913204;29;20024;-74
2022/03/20 08:05:31;;;;;;;6.20;3.30;;;;;;;;;;4914728;29;20032;-71
2022/03/20 08:07:58;;;;;;;5.50;3.22;;;;;;;;;;4909321;29;20503;-74
2022/03/20 08:10:24;;;;;;;4.63;3.10;;;;;;;;;;4912986;29;20046;-72
2022/03/20 08:12:49;;;;;;;4.07;2.60;;;;;;;;;;4912239;29;20119;-73
2022/03/20 08:15:16;;;;;;;4.28;2.67;;;;;;;;;;4902311;29;20099;-78
2022/03/20 08:17:43;;;;;;;4.68;2.65;;;;;;;;;;4906245;29;20040;-76
2022/03/20 08:20:10;;;;;;;4.93;2.83;;;;;;;;;;4902149;29;20496;-77
2022/03/20 08:22:37;;;;;;;5.65;2.85;;;;;;;;;;4907492;29;20108;-76
2022/03/20 08:25:04;;;;;;;5.97;3.03;;;;;;;;;;4915700;29;20036;-76
2022/03/20 08:27:30;;;;;;;5.75;2.30;;;;;;;;;;4913805;29;20087;-76
2022/03/20 08:29:57;;;;;;;6.13;3.20;;;;;;;;;;4915426;29;20036;-76
2022/03/20 08:32:24;;;;;;;7.97;2.50;;;;;;;;;;4915745;29;20570;-76
2022/03/20 08:34:50;;;;;;;6.38;3.10;;;;;;;;;;4916210;29;20040;-76
2022/03/20 08:37:16;;;;;;;4.50;2.60;;;;;;;;;;4915481;29;20020;-75
2022/03/20 08:39:42;;;;;;;3.60;2.30;;;;;;;;;;4914549;29;20044;-75
2022/03/20 08:42:08;;;;;;;4.78;3.08;;;;;;;;;;4901245;29;20028;-74
2022/03/20 08:44:34;;;;;;;7.40;3.53;;;;;;;;;;4911235;29;20176;-75
2022/03/20 08:47:00;;;;;;;4.07;2.22;;;;;;;;;;4911306;29;20032;-77
2022/03/20 08:49:26;;;;;;;4.95;2.92;;;;;;;;;;4904703;29;20441;-75
2022/03/20 08:51:51;;;;;;;7.30;3.05;;;;;;;;;;4915503;29;20036;-75
2022/03/20 08:54:17;;;;;;;4.97;2.35;;;;;;;;;;4914343;29;20119;-77
2022/03/20 08:56:43;;;;;;;3.90;2.72;;;;;;;;;;4904063;29;20029;-76
2022/03/20 08:59:09;;;;;;;4.45;2.95;;;;;;;;;;4897532;29;20385;-77
2022/03/20 09:01:35;;;;;;;6.05;3.15;;;;;;;;;;4906356;29;20042;-76
2022/03/20 09:04:01;;;;;;;6.13;2.80;;;;;;;;;;4915404;29;20492;-71
2022/03/20 09:06:28;;;;;;;6.97;3.65;;;;;;;;;;4914657;29;20028;-71
2022/03/20 09:08:54;;;;;;;4.95;3.10;;;;;;;;;;4914551;29;20037;-76
2022/03/20 09:11:21;;;;;;;6.82;4.00;;;;;;;;;;4915632;29;20103;-76
2022/03/20 09:13:47;;;;;;;4.22;2.63;;;;;;;;;;4914675;29;20483;-77
2022/03/20 09:19:00;;;;;;;4.50;3.03;;;;;;;;;;4915060;29;20044;-73
2022/03/20 09:21:31;;;;;;;5.68;2.90;;;;;;;;;;4912015;29;20032;-75
2022/03/20 09:23:58;;;;;;;10.15;3.13;;;;;;;;;;4901137;29;20032;-73
2022/03/20 09:26:24;;;;;;;5.00;2.58;;;;;;;;;;4914241;29;20115;-76
2022/03/20 09:28:50;;;;;;;8.20;3.58;;;;;;;;;;4914551;29;20083;-72
2022/03/20 09:31:16;;;;;;;4.75;2.55;;;;;;;;;;4915453;29;20036;-70
2022/03/20 09:33:43;;;;;;;6.15;3.22;;;;;;;;;;4918499;29;20035;-70
2022/03/20 09:36:10;;;;;;;6.15;3.67;;;;;;;;;;4918503;29;20039;-74
2022/03/20 09:38:37;;;;;;;5.55;3.55;;;;;;;;;;4917947;29;20053;-70
2022/03/20 09:41:07;;;;;;;6.57;3.50;;;;;;;;;;4917466;29;20510;-71
2022/03/20 09:43:34;;;;;;;5.28;2.60;;;;;;;;;;4909649;29;20164;-71
2022/03/20 09:46:00;;;;;;;4.93;2.83;;;;;;;;;;4910302;29;20488;-74
2022/03/20 09:48:29;;;;;;;5.20;2.80;;;;;;;;;;4916985;29;20063;-76
2022/03/20 09:50:55;;;;;;;6.80;3.33;;;;;;;;;;4913903;29;20028;-73
2022/03/20 09:53:21;;;;;;;5.60;3.35;;;;;;;;;;4907892;29;20383;-74
2022/03/20 09:55:47;;;;;;;7.40;4.95;;;;;;;;;;4917467;29;20034;-73
2022/03/20 09:58:13;;;;;;;5.10;3.58;;;;;;;;;;4917206;29;20056;-74
2022/03/20 10:00:39;;;;;;;6.05;3.00;;;;;;;;;;4917635;29;20070;-74
2022/03/20 10:03:20;;;;;;;6.95;3.53;;;;;;;;;;4917712;29;20040;-73
2022/03/20 10:06:17;;;;;;;6.25;3.42;;;;;;;;;;4902690;29;20040;-74
2022/03/20 10:08:55;;;;;;;7.38;4.10;;;;;;;;;;4912636;29;20032;-74
2022/03/20 10:11:22;;;;;;;4.13;3.03;;;;;;;;;;4901280;29;20049;-75
2022/03/20 10:14:17;;;;;;;6.78;2.90;;;;;;;;;;4916368;29;20028;-75
2022/03/20 10:16:48;;;;;;;4.93;2.80;;;;;;;;;;4905704;29;20601;-73
2022/03/20 10:19:22;;;;;;;3.47;2.42;;;;;;;;;;4913503;29;20039;-75
2022/03/20 10:21:52;;;;;;;5.72;2.92;;;;;;;;;;4908512;29;20041;-79
2022/03/20 10:24:20;;;;;;;3.95;2.78;;;;;;;;;;4911191;29;20557;-74
2022/03/20 10:26:52;;;;;;;5.55;3.03;;;;;;;;;;4908972;29;20115;-79
2022/03/20 10:29:18;;;;;;;6.60;3.60;;;;;;;;;;4901678;29;20037;-76
2022/03/20 10:31:53;;;;;;;6.72;3.88;;;;;;;;;;4898514;29;20180;-77
2022/03/20 10:34:20;;;;;;;5.63;3.03;;;;;;;;;;4901640;29;20025;-77
2022/03/20 10:36:47;;;;;;;7.82;3.47;;;;;;;;;;4907014;29;20032;-76
2022/03/20 10:39:16;;;;;;;5.95;3.70;;;;;;;;;;4902963;29;20071;-71
2022/03/20 10:41:45;;;;;;;6.32;3.30;;;;;;;;;;4905747;29;20399;-74
2022/03/20 10:44:15;;;;;;;8.90;3.95;;;;;;;;;;4906882;29;20048;-72
2022/03/20 10:46:42;;;;;;;9.35;4.63;;;;;;;;;;4906195;29;20036;-71
2022/03/20 10:49:09;;;;;;;6.47;3.55;;;;;;;;;;4911504;29;20024;-75
2022/03/20 10:51:37;;;;;;;3.45;2.28;;;;;;;;;;4915697;29;20514;-76
2022/03/20 10:54:20;;;;;;;8.13;4.05;;;;;;;;;;4915363;29;20084;-70
2022/03/20 10:56:54;;;;;;;5.53;2.50;;;;;;;;;;4907070;29;20051;-75
2022/03/20 10:59:20;;;;;;;7.18;4.03;;;;;;;;;;4917120;29;20040;-74
2022/03/20 11:01:47;;;;;;;9.82;4.63;;;;;;;;;;4915810;29;20028;-71
2022/03/20 11:04:16;;;;;;;7.20;3.90;;;;;;;;;;4916137;29;20036;-76
2022/03/20 11:06:46;;;;;;;6.95;2.90;;;;;;;;;;4916469;29;20035;-70
2022/03/20 11:09:13;;;;;;;11.02;5.30;;;;;;;;;;4917693;29;20047;-73
2022/03/20 11:11:51;;;;;;;8.57;4.10;;;;;;;;;;4915769;29;20024;-74
2022/03/20 11:14:20;;;;;;;5.15;2.63;;;;;;;;;;4915310;29;20128;-71
2022/03/20 11:17:01;;;;;;;5.85;3.90;;;;;;;;;;4908393;29;20044;-78
2022/03/20 11:19:31;;;;;;;8.90;5.38;;;;;;;;;;4910966;29;20033;-68
2022/03/20 11:22:03;;;;;;;5.80;3.40;;;;;;;;;;4896999;29;20060;-73
2022/03/20 11:24:30;;;;;;;4.63;3.22;;;;;;;;;;4896629;29;20054;-70
2022/03/20 11:27:00;;;;;;;5.25;3.25;;;;;;;;;;4896751;29;20107;-70
2022/03/20 11:29:29;;;;;;;5.28;3.85;;;;;;;;;;4905197;29;20364;-71
2022/03/20 11:31:57;;;;;;;6.95;3.47;;;;;;;;;;4899273;29;20091;-71
2022/03/20 11:34:25;;;;;;;6.95;4.45;;;;;;;;;;4896812;29;20032;-71
2022/03/20 11:37:06;;;;;;;6.50;4.43;;;;;;;;;;4897910;29;20079;-69
2022/03/20 11:39:33;;;;;;;6.93;4.82;;;;;;;;;;4897423;29;20036;-72
2022/03/20 11:42:25;;;;;;;7.72;4.50;;;;;;;;;;4895659;29;20623;-70
2022/03/20 11:45:18;;;;;;;9.95;3.90;;;;;;;;;;4896207;29;20072;-70
2022/03/20 11:47:49;;;;;;;8.93;4.82;;;;;;;;;;4897354;29;20040;-69
2022/03/20 11:50:25;;;;;;;8.13;5.47;;;;;;;;;;4897907;29;20037;-70
2022/03/20 11:52:58;;;;;;;6.40;4.10;;;;;;;;;;4896838;29;20033;-71
2022/03/20 11:55:33;;;;;;;11.75;6.95;;;;;;;;;;4896792;29;20166;-71
2022/03/20 11:58:08;;;;;;;12.18;5.93;;;;;;;;;;4897672;29;20041;-70
2022/03/20 12:00:39;;;;;;;7.38;4.22;;;;;;;;;;4908127;29;20404;-73
2022/03/20 12:03:11;;;;;;;9.75;5.47;;;;;;;;;;4914811;29;20099;-71
2022/03/20 12:06:24;;;;;;;7.72;4.38;;;;;;;;;;4912356;29;20032;-72
2022/03/20 12:09:11;;;;;;;7.20;4.72;;;;;;;;;;4913233;29;20036;-76
2022/03/20 12:12:10;;;;;;;9.27;4.65;;;;;;;;;;4915083;29;20044;-73
2022/03/20 12:14:41;;;;;;;7.43;4.07;;;;;;;;;;4914903;29;20091;-75
2022/03/20 12:17:07;;;;;;;10.20;4.00;;;;;;;;;;4915209;29;20135;-74
2022/03/20 12:19:49;;;;;;;9.15;4.80;;;;;;;;;;4909540;29;20040;-72
2022/03/20 12:22:21;;;;;;;6.60;3.50;;;;;;;;;;4914712;29;20036;-76
2022/03/20 12:25:00;;;;;;;5.78;3.38;;;;;;;;;;4914108;29;20036;-77
2022/03/20 12:27:26;;;;;;;4.43;2.60;;;;;;;;;;4915075;29;20159;-78
2022/03/20 12:30:04;;;;;;;7.30;4.47;;;;;;;;;;4915862;29;20067;-73
2022/03/20 12:32:58;;;;;;;10.50;4.55;;;;;;;;;;4915151;29;20040;-74
2022/03/20 12:35:26;;;;;;;8.13;2.72;;;;;;;;;;4914320;29;20074;-75
2022/03/20 12:37:55;;;;;;;4.05;2.17;;;;;;;;;;4916251;29;20032;-74
2022/03/20 12:40:26;;;;;;;3.53;2.15;;;;;;;;;;4915313;29;20032;-78
2022/03/20 12:43:07;;;;;;;5.07;2.50;;;;;;;;;;4914472;29;20039;-76
2022/03/20 12:45:44;;;;;;;3.05;2.10;;;;;;;;;;4914751;29;20135;-76
2022/03/20 12:48:16;;;;;;;5.72;2.90;;;;;;;;;;4915798;29;20115;-78
2022/03/20 12:51:09;;;;;;;5.53;2.55;;;;;;;;;;4915631;29;20040;-77
2022/03/20 12:53:46;;;;;;;4.40;2.47;;;;;;;;;;4912878;29;20048;-76
2022/03/20 12:56:33;;;;;;;5.30;2.60;;;;;;;;;;4915214;29;20036;-77
2022/03/20 12:59:00;;;;;;;5.50;2.38;;;;;;;;;;4915744;29;20035;-79
2022/03/20 13:01:36;;;;;;;4.88;2.50;;;;;;;;;;4913768;29;20115;-78
2022/03/20 13:04:13;;;;;;;4.55;2.75;;;;;;;;;;4916417;29;20032;-72
2022/03/20 13:06:39;;;;;;;5.38;2.97;;;;;;;;;;4915962;29;20095;-76
2022/03/20 13:09:11;;;;;;;4.35;2.20;;;;;;;;;;4918423;29;20031;-77
2022/03/20 13:11:56;;;;;;;4.70;2.70;;;;;;;;;;4919212;29;20131;-81
2022/03/20 13:14:23;;;;;;;4.70;2.90;;;;;;;;;;4917894;29;20044;-73
2022/03/20 13:16:56;;;;;;;5.28;2.53;;;;;;;;;;4918341;29;20499;-73
2022/03/20 13:19:34;;;;;;;5.60;2.83;;;;;;;;;;4914099;29;20036;-76
2022/03/20 13:22:10;;;;;;;6.75;3.30;;;;;;;;;;4917533;29;20221;-75
2022/03/20 13:24:43;;;;;;;5.28;2.50;;;;;;;;;;4916504;29;20044;-73
2022/03/20 13:27:11;;;;;;;3.65;2.20;;;;;;;;;;4916837;29;20399;-76
2022/03/20 13:29:40;;;;;;;5.13;2.45;;;;;;;;;;4917966;29;20017;-71
2022/03/20 13:32:10;;;;;;;7.25;2.50;;;;;;;;;;4917732;29;20115;-72
2022/03/20 13:34:47;;;;;;;4.60;2.42;;;;;;;;;;4916760;29;20391;-72
2022/03/20 13:37:16;;;;;;;3.63;2.50;;;;;;;;;;4916293;29;20032;-70
2022/03/20 13:39:51;;;;;;;3.35;2.15;;;;;;;;;;4917095;29;20026;-72
2022/03/20 13:42:18;;;;;;;4.50;2.67;;;;;;;;;;4916745;29;20391;-73
2022/03/20 13:44:47;;;;;;;3.72;2.20;;;;;;;;;;4917706;29;20075;-74
2022/03/20 13:47:14;;;;;;;4.15;2.70;;;;;;;;;;4916251;29;20047;-76
2022/03/20 13:49:41;;;;;;;4.97;2.53;;;;;;;;;;4917089;29;20391;-77
2022/03/20 13:52:17;;;;;;;7.32;3.65;;;;;;;;;;4909140;29;20425;-72
2022/03/20 13:55:01;;;;;;;4.85;2.78;;;;;;;;;;4897667;29;20087;-72
2022/03/20 13:57:28;;;;;;;5.15;2.70;;;;;;;;;;4897750;29;20039;-72
2022/03/20 13:59:56;;;;;;;6.60;2.50;;;;;;;;;;4909169;29;20032;-71
2022/03/20 14:02:24;;;;;;;5.15;2.90;;;;;;;;;;4917114;29;20032;-74
2022/03/20 14:04:57;;;;;;;4.63;2.63;;;;;;;;;;4916931;29;20032;-77
2022/03/20 14:07:24;;;;;;;6.82;3.40;;;;;;;;;;4917330;29;20039;-73
2022/03/20 14:09:53;;;;;;;5.57;3.20;;;;;;;;;;4916934;29;20099;-72
2022/03/20 14:12:30;;;;;;;6.43;3.15;;;;;;;;;;4917264;29;20163;-72
2022/03/20 14:15:06;;;;;;;11.57;5.95;;;;;;;;;;4915357;29;20040;-73
2022/03/20 14:17:40;;;;;;;6.40;3.60;;;;;;;;;;4916611;29;20395;-71
2022/03/20 14:20:09;;;;;;;12.63;5.95;;;;;;;;;;4915335;29;20171;-72
2022/03/20 14:22:46;;;;;;;15.85;8.43;;;;;;;;;;4916494;29;20494;-75
2022/03/20 14:25:41;;;;;;;9.88;4.90;;;;;;;;;;4915208;29;20068;-71
2022/03/20 14:28:11;;;;;;;12.77;4.78;;;;;;;;;;4916631;29;20051;-73
2022/03/20 14:41:51;;;;;;;5.60;2.90;;;;;;;;;;4916109;29;20051;-77
2022/03/20 14:44:18;;;;;;;3.85;2.38;;;;;;;;;;4915784;29;20036;-72
2022/03/20 14:46:47;;;;;;;7.50;4.18;;;;;;;;;;4933253;29;20032;-76
2022/03/20 14:49:16;;;;;;;5.43;3.20;;;;;;;;;;4935613;29;20119;-75
2022/03/20 14:51:43;;;;;;;7.20;3.88;;;;;;;;;;4948933;29;20032;-80
2022/03/20 14:54:10;;;;;;;10.00;4.80;;;;;;;;;;4914893;29;20119;-74
2022/03/20 14:56:39;;;;;;;8.20;3.63;;;;;;;;;;4915548;29;20020;-77
2022/03/20 14:59:10;;;;;;;5.72;3.20;;;;;;;;;;4915766;29;20080;-71
2022/03/20 15:01:42;;;;;;;8.20;4.50;;;;;;;;;;4913832;29;20044;-80
2022/03/20 15:04:08;;;;;;;7.32;3.50;;;;;;;;;;4910814;29;20036;-74
2022/03/20 15:06:34;;;;;;;6.68;3.40;;;;;;;;;;4915549;29;20035;-73
2022/03/20 15:11:47;;;;;;;8.82;3.90;;;;;;;;;;4933157;29;20050;-72
2022/03/20 15:14:13;;;;;;;6.00;3.28;;;;;;;;;;4933484;29;20048;-73
2022/03/20 15:16:39;;;;;;;5.63;3.20;;;;;;;;;;4915939;29;20040;-76
2022/03/20 15:19:05;;;;;;;6.25;3.70;;;;;;;;;;4916001;29;20411;-78
2022/03/20 15:21:31;;;;;;;4.85;3.00;;;;;;;;;;4915411;29;20036;-76
2022/03/20 15:23:57;;;;;;;6.90;3.85;;;;;;;;;;4914575;29;20432;-70
2022/03/20 15:26:23;;;;;;;5.43;3.55;;;;;;;;;;4915677;29;20032;-71
2022/03/20 15:28:49;;;;;;;6.30;3.20;;;;;;;;;;4915515;29;20502;-72
2022/03/20 15:31:15;;;;;;;5.43;3.20;;;;;;;;;;4914412;29;20032;-73
2022/03/20 15:33:42;;;;;;;7.22;3.60;;;;;;;;;;4914186;29;20039;-74
2022/03/20 15:36:10;;;;;;;8.38;3.40;;;;;;;;;;4914753;29;20484;-73
2022/03/20 15:38:40;;;;;;;5.28;3.28;;;;;;;;;;4915683;29;20057;-73
2022/03/20 15:41:11;;;;;;;4.97;2.97;;;;;;;;;;4914980;29;20407;-74
2022/03/20 15:43:39;;;;;;;4.90;2.80;;;;;;;;;;4913309;29;20033;-71
2022/03/20 15:46:04;;;;;;;7.30;4.18;;;;;;;;;;4913883;29;20099;-77
2022/03/20 15:48:30;;;;;;;4.63;2.95;;;;;;;;;;4913296;29;20044;-73